createdAt,value
2022-10-19T00:00:19.919Z,80.14
2022-10-19T00:01:19.902Z,80.24
2022-10-19T00:02:19.927Z,80.04
2022-10-19T00:03:23.116Z,80.04
2022-10-19T00:04:19.868Z,80.14
2022-10-19T00:05:19.860Z,80.04
2022-10-19T00:06:19.848Z,79.93
2022-10-19T00:07:19.834Z,79.93
2022-10-19T00:08:19.826Z,79.84
2022-10-19T00:09:19.812Z,79.84
2022-10-19T00:10:19.829Z,79.73
2022-10-19T00:11:19.788Z,79.73
2022-10-19T00:12:19.777Z,79.84
2022-10-19T00:13:19.773Z,79.93
2022-10-19T00:14:19.753Z,79.93
2022-10-19T00:15:19.752Z,80.04
2022-10-19T00:16:19.732Z,80.04
2022-10-19T00:17:19.727Z,80.14
2022-10-19T00:18:19.708Z,80.04
2022-10-19T00:19:19.696Z,80.04
2022-10-19T00:20:19.686Z,80.14
2022-10-19T00:21:19.685Z,80.04
2022-10-19T00:22:19.668Z,80.04
2022-10-19T00:23:19.651Z,80.04
2022-10-19T00:24:19.640Z,79.93
2022-10-19T00:25:19.628Z,79.84
2022-10-19T00:26:19.639Z,79.84
2022-10-19T00:27:19.612Z,79.84
2022-10-19T00:28:19.593Z,79.73
2022-10-19T00:29:19.589Z,79.73
2022-10-19T00:30:19.579Z,79.63
2022-10-19T00:31:19.559Z,79.43
2022-10-19T00:32:19.547Z,79.22
2022-10-19T00:33:19.535Z,79.12
2022-10-19T00:34:19.523Z,79.02
2022-10-19T00:35:19.513Z,79.12
2022-10-19T00:36:19.500Z,79.02
2022-10-19T00:37:19.489Z,78.61
2022-10-19T00:38:19.480Z,78.47
2022-10-19T00:39:19.464Z,78.47
2022-10-19T00:40:19.457Z,78.27
2022-10-19T00:41:19.445Z,78.17
2022-10-19T00:42:19.457Z,78.17
2022-10-19T00:43:19.419Z,78.07
2022-10-19T00:44:19.413Z,77.97
2022-10-19T00:45:19.395Z,77.97
2022-10-19T00:46:19.384Z,77.97
2022-10-19T00:47:19.371Z,77.97
2022-10-19T00:48:19.361Z,77.97
2022-10-19T00:49:19.349Z,78.07
2022-10-19T00:50:19.337Z,78.07
2022-10-19T00:51:19.327Z,77.97
2022-10-19T00:52:19.317Z,77.97
2022-10-19T00:53:19.302Z,77.97
2022-10-19T00:54:19.296Z,77.86
2022-10-19T00:55:19.282Z,77.77
2022-10-19T00:56:19.269Z,77.77
2022-10-19T00:57:19.258Z,77.66
2022-10-19T00:58:19.268Z,77.77
2022-10-19T00:59:19.232Z,77.97
2022-10-19T01:00:19.224Z,78.07
2022-10-19T01:01:19.365Z,78.17
2022-10-19T01:02:19.206Z,78.07
2022-10-19T01:03:19.186Z,77.97
2022-10-19T01:04:19.176Z,77.86
2022-10-19T01:05:19.166Z,77.66
2022-10-19T01:06:19.178Z,77.66
2022-10-19T01:07:19.144Z,77.77
2022-10-19T01:08:19.133Z,77.86
2022-10-19T01:09:19.126Z,77.86
2022-10-19T01:10:19.107Z,77.77
2022-10-19T01:11:19.098Z,77.66
2022-10-19T01:12:19.085Z,77.46
2022-10-19T01:13:19.072Z,77.56
2022-10-19T01:14:19.090Z,77.46
2022-10-19T01:15:19.051Z,77.25
2022-10-19T01:16:19.041Z,77.25
2022-10-19T01:17:19.029Z,77.25
2022-10-19T01:18:19.016Z,77.25
2022-10-19T01:19:19.005Z,77.25
2022-10-19T01:20:18.992Z,77.16
2022-10-19T01:21:18.981Z,76.95
2022-10-19T01:22:18.970Z,76.85
2022-10-19T01:23:18.964Z,76.55
2022-10-19T01:24:18.945Z,76.34
2022-10-19T01:25:18.943Z,76.14
2022-10-19T01:26:18.923Z,76.03
2022-10-19T01:27:18.914Z,76.03
2022-10-19T01:28:18.899Z,75.93
2022-10-19T01:29:18.889Z,76.03
2022-10-19T01:30:18.900Z,76.03
2022-10-19T01:31:18.871Z,76.14
2022-10-19T01:32:18.854Z,76.14
2022-10-19T01:33:18.851Z,75.73
2022-10-19T01:34:18.836Z,75.42
2022-10-19T01:35:18.819Z,75.12
2022-10-19T01:36:18.814Z,75.12
2022-10-19T01:37:18.797Z,74.92
2022-10-19T01:38:18.789Z,74.51
2022-10-19T01:39:18.773Z,74.51
2022-10-19T01:40:18.763Z,74.61
2022-10-19T01:41:18.749Z,74.61
2022-10-19T01:42:18.742Z,74.71
2022-10-19T01:43:18.735Z,74.92
2022-10-19T01:44:18.715Z,74.92
2022-10-19T01:45:18.712Z,74.82
2022-10-19T01:46:18.738Z,74.82
2022-10-19T01:47:18.684Z,74.82
2022-10-19T01:48:18.674Z,74.92
2022-10-19T01:49:18.663Z,75.02
2022-10-19T01:50:18.655Z,75.12
2022-10-19T01:51:18.639Z,75.22
2022-10-19T01:52:18.637Z,75.63
2022-10-19T01:53:18.615Z,75.87
2022-10-19T01:54:18.603Z,76.07
2022-10-19T01:55:18.592Z,76.14
2022-10-19T01:56:18.582Z,76.34
2022-10-19T01:57:18.574Z,76.58
2022-10-19T01:58:18.561Z,76.68
2022-10-19T01:59:18.554Z,76.75
2022-10-19T02:00:18.536Z,76.78
2022-10-19T02:01:18.532Z,76.98
2022-10-19T02:02:18.538Z,77.09
2022-10-19T02:03:18.502Z,77.19
2022-10-19T02:04:18.494Z,77.29
2022-10-19T02:05:18.479Z,77.29
2022-10-19T02:06:18.469Z,77.29
2022-10-19T02:07:18.458Z,77.50
2022-10-19T02:08:18.448Z,77.50
2022-10-19T02:09:18.438Z,77.50
2022-10-19T02:10:18.436Z,77.60
2022-10-19T02:11:18.412Z,77.70
2022-10-19T02:12:18.409Z,77.80
2022-10-19T02:13:18.390Z,77.80
2022-10-19T02:14:18.383Z,77.90
2022-10-19T02:15:18.374Z,77.90
2022-10-19T02:16:18.357Z,78.00
2022-10-19T02:17:18.358Z,78.00
2022-10-19T02:18:18.359Z,78.00
2022-10-19T02:19:18.440Z,78.11
2022-10-19T02:20:18.315Z,78.11
2022-10-19T02:21:18.308Z,78.00
2022-10-19T02:22:18.296Z,78.00
2022-10-19T02:23:18.282Z,78.11
2022-10-19T02:24:18.274Z,78.11
2022-10-19T02:25:18.260Z,78.21
2022-10-19T02:26:18.249Z,78.21
2022-10-19T02:27:18.244Z,78.11
2022-10-19T02:28:18.279Z,78.07
2022-10-19T02:29:18.218Z,78.07
2022-10-19T02:30:18.199Z,78.07
2022-10-19T02:31:18.189Z,78.07
2022-10-19T02:32:18.177Z,77.97
2022-10-19T02:33:18.165Z,77.97
2022-10-19T02:34:18.180Z,77.86
2022-10-19T02:35:18.144Z,77.60
2022-10-19T02:36:18.132Z,77.80
2022-10-19T02:37:20.947Z,77.80
2022-10-19T02:38:18.112Z,77.90
2022-10-19T02:39:18.099Z,77.86
2022-10-19T02:40:18.092Z,77.77
2022-10-19T02:41:18.104Z,77.77
2022-10-19T02:42:18.066Z,77.77
2022-10-19T02:43:18.053Z,77.66
2022-10-19T02:44:18.046Z,77.60
2022-10-19T02:45:18.041Z,77.60
2022-10-19T02:46:18.041Z,77.56
2022-10-19T02:47:18.025Z,77.70
2022-10-19T02:48:18.000Z,77.70
2022-10-19T02:49:17.987Z,77.70
2022-10-19T02:50:17.999Z,77.70
2022-10-19T02:51:17.971Z,77.60
2022-10-19T02:52:17.958Z,77.60
2022-10-19T02:53:17.945Z,77.70
2022-10-19T02:54:17.932Z,77.80
2022-10-19T02:55:17.919Z,77.80
2022-10-19T02:56:17.916Z,77.70
2022-10-19T02:57:17.894Z,77.80
2022-10-19T02:58:17.886Z,77.90
2022-10-19T02:59:17.873Z,77.90
2022-10-19T03:00:17.871Z,77.90
2022-10-19T03:01:17.923Z,77.90
2022-10-19T03:02:17.844Z,77.90
2022-10-19T03:03:17.828Z,77.90
2022-10-19T03:04:17.817Z,77.90
2022-10-19T03:05:17.804Z,77.90
2022-10-19T03:06:17.821Z,77.90
2022-10-19T03:07:17.783Z,78.00
2022-10-19T03:08:17.776Z,78.00
2022-10-19T03:09:17.761Z,78.11
2022-10-19T03:10:17.759Z,78.11
2022-10-19T03:11:17.737Z,78.11
2022-10-19T03:12:17.725Z,78.21
2022-10-19T03:13:17.721Z,78.21
2022-10-19T03:14:17.702Z,78.21
2022-10-19T03:15:17.694Z,78.21
2022-10-19T03:16:17.683Z,78.31
2022-10-19T03:17:17.675Z,78.41
2022-10-19T03:18:17.660Z,78.51
2022-10-19T03:19:17.665Z,78.61
2022-10-19T03:20:17.635Z,78.61
2022-10-19T03:21:17.625Z,78.61
2022-10-19T03:22:17.639Z,78.61
2022-10-19T03:23:17.601Z,78.61
2022-10-19T03:24:17.591Z,78.61
2022-10-19T03:25:17.584Z,78.71
2022-10-19T03:26:17.569Z,78.92
2022-10-19T03:27:17.558Z,78.92
2022-10-19T03:28:17.544Z,79.12
2022-10-19T03:29:17.536Z,79.22
2022-10-19T03:30:17.522Z,79.22
2022-10-19T03:31:17.509Z,79.12
2022-10-19T03:32:17.498Z,79.22
2022-10-19T03:33:17.511Z,79.43
2022-10-19T03:34:17.481Z,79.53
2022-10-19T03:35:17.467Z,79.53
2022-10-19T03:36:17.454Z,79.43
2022-10-19T03:37:17.442Z,79.32
2022-10-19T03:38:17.454Z,79.32
2022-10-19T03:39:17.421Z,79.22
2022-10-19T03:40:17.409Z,79.22
2022-10-19T03:41:17.452Z,79.22
2022-10-19T03:42:17.386Z,79.22
2022-10-19T03:43:17.374Z,79.32
2022-10-19T03:44:17.363Z,79.32
2022-10-19T03:45:17.355Z,79.43
2022-10-19T03:46:17.344Z,79.43
2022-10-19T03:47:17.330Z,79.43
2022-10-19T03:48:17.628Z,79.32
2022-10-19T03:49:17.309Z,79.22
2022-10-19T03:50:17.297Z,78.92
2022-10-19T03:51:17.295Z,78.82
2022-10-19T03:52:17.273Z,78.82
2022-10-19T03:53:17.262Z,78.82
2022-10-19T03:54:17.273Z,78.71
2022-10-19T03:55:17.237Z,78.85
2022-10-19T03:56:17.231Z,78.96
2022-10-19T03:57:17.222Z,79.06
2022-10-19T03:58:17.212Z,79.16
2022-10-19T03:59:17.194Z,79.16
2022-10-19T04:00:17.188Z,79.37
2022-10-19T04:01:17.239Z,79.46
2022-10-19T04:02:17.161Z,79.67
2022-10-19T04:03:17.156Z,79.77
2022-10-19T04:04:17.137Z,79.77
2022-10-19T04:05:17.132Z,79.77
2022-10-19T04:06:19.758Z,79.77
2022-10-19T04:07:17.104Z,79.67
2022-10-19T04:08:17.093Z,79.67
2022-10-19T04:09:17.082Z,79.77
2022-10-19T04:10:17.096Z,79.77
2022-10-19T04:11:17.057Z,79.87
2022-10-19T04:12:17.047Z,79.87
2022-10-19T04:13:17.037Z,79.98
2022-10-19T04:14:26.744Z,79.67
2022-10-19T04:15:17.014Z,79.46
2022-10-19T04:16:17.002Z,79.57
2022-10-19T04:17:16.992Z,79.67
2022-10-19T04:18:16.979Z,79.67
2022-10-19T04:19:16.970Z,79.67
2022-10-19T04:20:16.957Z,79.57
2022-10-19T04:21:16.946Z,79.57
2022-10-19T04:22:16.941Z,79.37
2022-10-19T04:24:16.912Z,79.06
2022-10-19T04:25:16.903Z,79.06
2022-10-19T04:26:16.915Z,78.96
2022-10-19T04:27:16.880Z,79.06
2022-10-19T04:28:16.877Z,79.16
2022-10-19T04:29:16.862Z,79.26
2022-10-19T04:30:16.852Z,79.26
2022-10-19T04:31:16.835Z,79.26
2022-10-19T04:32:16.829Z,79.16
2022-10-19T04:33:16.811Z,79.16
2022-10-19T04:34:16.804Z,79.16
2022-10-19T04:35:16.790Z,79.16
2022-10-19T04:36:16.778Z,79.06
2022-10-19T04:37:16.768Z,79.06
2022-10-19T04:38:16.795Z,79.06
2022-10-19T04:39:16.746Z,78.96
2022-10-19T04:40:16.736Z,78.96
2022-10-19T04:41:16.720Z,79.06
2022-10-19T04:42:16.745Z,78.96
2022-10-19T04:43:16.700Z,79.06
2022-10-19T04:44:16.714Z,78.96
2022-10-19T04:45:16.676Z,78.85
2022-10-19T04:46:16.665Z,78.75
2022-10-19T04:47:16.660Z,78.75
2022-10-19T04:48:16.651Z,78.75
2022-10-19T04:49:19.529Z,78.75
2022-10-19T04:50:16.627Z,78.75
2022-10-19T04:51:16.610Z,78.85
2022-10-19T04:52:16.598Z,78.85
2022-10-19T04:53:16.675Z,78.85
2022-10-19T04:54:16.579Z,78.85
2022-10-19T04:55:16.569Z,78.65
2022-10-19T04:56:16.551Z,78.55
2022-10-19T04:57:16.540Z,78.55
2022-10-19T04:58:16.554Z,78.85
2022-10-19T04:59:16.521Z,78.85
2022-10-19T05:00:16.517Z,78.85
2022-10-19T05:01:16.569Z,78.85
2022-10-19T05:02:16.490Z,78.85
2022-10-19T05:03:16.479Z,78.85
2022-10-19T05:04:16.463Z,78.85
2022-10-19T05:05:16.451Z,78.85
2022-10-19T05:06:16.444Z,78.96
2022-10-19T05:07:16.474Z,78.85
2022-10-19T05:08:16.429Z,78.85
2022-10-19T05:09:18.408Z,78.85
2022-10-19T05:10:16.399Z,78.85
2022-10-19T05:11:16.384Z,78.96
2022-10-19T05:12:16.372Z,78.96
2022-10-19T05:13:16.361Z,78.96
2022-10-19T05:14:18.445Z,78.96
2022-10-19T05:15:16.342Z,79.06
2022-10-19T05:16:16.335Z,79.16
2022-10-19T05:17:16.428Z,79.37
2022-10-19T05:18:16.312Z,79.46
2022-10-19T05:19:16.294Z,79.46
2022-10-19T05:20:16.286Z,79.37
2022-10-19T05:21:16.272Z,79.37
2022-10-19T05:22:16.260Z,79.26
2022-10-19T05:23:16.255Z,79.26
2022-10-19T05:24:18.238Z,79.37
2022-10-19T05:25:16.245Z,79.37
2022-10-19T05:26:16.214Z,79.46
2022-10-19T05:27:16.236Z,79.77
2022-10-19T05:28:16.193Z,80.18
2022-10-19T05:29:16.181Z,80.48
2022-10-19T05:30:16.199Z,80.89
2022-10-19T05:31:16.158Z,81.20
2022-10-19T05:32:16.152Z,81.54
2022-10-19T05:33:16.136Z,81.54
2022-10-19T05:34:16.126Z,81.54
2022-10-19T05:35:21.530Z,81.54
2022-10-19T05:36:16.111Z,81.54
2022-10-19T05:37:16.090Z,81.54
2022-10-19T05:38:16.090Z,81.64
2022-10-19T05:39:16.078Z,81.84
2022-10-19T05:40:16.057Z,82.04
2022-10-19T05:41:16.049Z,82.15
2022-10-19T05:42:16.036Z,82.25
2022-10-19T05:43:16.025Z,82.45
2022-10-19T05:44:16.013Z,82.65
2022-10-19T05:45:16.001Z,82.76
2022-10-19T05:46:16.019Z,82.76
2022-10-19T05:47:15.980Z,82.56
2022-10-19T05:48:15.974Z,82.70
2022-10-19T05:49:15.960Z,82.76
2022-10-19T05:50:15.947Z,82.59
2022-10-19T05:51:15.936Z,82.70
2022-10-19T05:52:15.923Z,82.70
2022-10-19T05:53:15.918Z,82.70
2022-10-19T05:54:15.901Z,82.59
2022-10-19T05:55:15.894Z,82.70
2022-10-19T05:56:15.884Z,82.70
2022-10-19T05:57:15.869Z,82.59
2022-10-19T05:58:15.862Z,82.49
2022-10-19T05:59:15.852Z,82.49
2022-10-19T06:00:15.861Z,82.49
2022-10-19T06:01:15.829Z,82.49
2022-10-19T06:02:15.836Z,82.45
2022-10-19T06:03:15.801Z,82.35
2022-10-19T06:05:15.778Z,82.15
2022-10-19T06:06:15.771Z,82.15
2022-10-19T06:07:15.758Z,82.15
2022-10-19T06:08:15.747Z,82.25
2022-10-19T06:09:15.738Z,82.15
2022-10-19T06:10:15.734Z,81.84
2022-10-19T06:11:15.712Z,81.64
2022-10-19T06:12:16.391Z,81.54
2022-10-19T06:13:15.690Z,81.54
2022-10-19T06:14:15.687Z,81.64
2022-10-19T06:15:15.669Z,81.54
2022-10-19T06:16:15.665Z,81.43
2022-10-19T06:17:15.647Z,81.43
2022-10-19T06:18:15.673Z,81.43
2022-10-19T06:19:15.626Z,81.43
2022-10-19T06:20:15.616Z,81.34
2022-10-19T06:21:15.607Z,81.23
2022-10-19T06:22:15.591Z,81.13
2022-10-19T06:23:15.587Z,81.13
2022-10-19T06:24:15.568Z,81.09
2022-10-19T06:25:18.107Z,80.79
2022-10-19T06:26:15.552Z,80.79
2022-10-19T06:27:15.584Z,80.68
2022-10-19T06:28:15.525Z,80.59
2022-10-19T06:29:15.518Z,80.48
2022-10-19T06:30:15.586Z,80.38
2022-10-19T06:31:15.499Z,80.38
2022-10-19T06:32:15.482Z,80.28
2022-10-19T06:33:15.472Z,80.38
2022-10-19T06:34:15.582Z,80.38
2022-10-19T06:35:15.458Z,80.48
2022-10-19T06:36:15.445Z,80.59
2022-10-19T06:37:15.424Z,80.59
2022-10-19T06:38:15.415Z,80.59
2022-10-19T06:39:15.402Z,80.59
2022-10-19T06:40:15.481Z,80.68
2022-10-19T06:41:15.383Z,80.68
2022-10-19T06:42:15.371Z,80.68
2022-10-19T06:43:15.360Z,80.59
2022-10-19T06:44:15.350Z,80.45
2022-10-19T06:45:15.337Z,80.24
2022-10-19T06:46:15.324Z,80.24
2022-10-19T06:47:15.322Z,80.24
2022-10-19T06:48:15.310Z,80.24
2022-10-19T06:49:15.292Z,80.14
2022-10-19T06:50:15.307Z,80.04
2022-10-19T06:51:15.271Z,80.14
2022-10-19T06:52:15.262Z,80.14
2022-10-19T06:53:15.256Z,80.14
2022-10-19T06:54:15.239Z,80.24
2022-10-19T06:55:15.235Z,80.24
2022-10-19T06:56:15.216Z,80.34
2022-10-19T06:57:15.203Z,80.45
2022-10-19T06:58:15.195Z,80.45
2022-10-19T06:59:15.218Z,80.45
2022-10-19T07:00:15.170Z,80.24
2022-10-19T07:01:15.416Z,80.04
2022-10-19T07:02:15.152Z,80.04
2022-10-19T07:03:15.142Z,80.04
2022-10-19T07:04:15.125Z,80.14
2022-10-19T07:05:15.119Z,80.10
2022-10-19T07:06:15.134Z,80.10
2022-10-19T07:07:15.092Z,80.00
2022-10-19T07:08:15.125Z,80.10
2022-10-19T07:09:15.072Z,80.10
2022-10-19T07:10:15.066Z,79.76
2022-10-19T07:11:15.046Z,79.35
2022-10-19T07:12:15.039Z,79.25
2022-10-19T07:13:15.030Z,79.01
2022-10-19T07:14:15.015Z,78.74
2022-10-19T07:15:15.010Z,78.71
2022-10-19T07:16:17.971Z,78.81
2022-10-19T07:17:14.984Z,78.50
2022-10-19T07:18:14.969Z,78.60
2022-10-19T07:19:14.962Z,78.30
2022-10-19T07:20:14.947Z,78.06
2022-10-19T07:21:14.935Z,78.06
2022-10-19T07:22:20.374Z,78.06
2022-10-19T07:23:14.910Z,77.72
2022-10-19T07:24:14.898Z,77.11
2022-10-19T07:25:14.887Z,76.97
2022-10-19T07:26:14.876Z,76.26
2022-10-19T07:27:14.872Z,76.26
2022-10-19T07:28:14.853Z,75.72
2022-10-19T07:29:14.842Z,75.78
2022-10-19T07:30:14.830Z,75.45
2022-10-19T07:31:14.820Z,74.74
2022-10-19T07:32:14.809Z,74.03
2022-10-19T07:33:14.888Z,74.09
2022-10-19T07:34:14.783Z,73.79
2022-10-19T07:35:14.774Z,73.08
2022-10-19T07:36:14.767Z,72.74
2022-10-19T07:37:14.751Z,72.65
2022-10-19T07:38:14.764Z,72.54
2022-10-19T07:39:14.736Z,72.34
2022-10-19T07:40:14.716Z,72.03
2022-10-19T07:41:14.707Z,72.00
2022-10-19T07:42:14.786Z,72.10
2022-10-19T07:43:14.690Z,71.77
2022-10-19T07:44:15.738Z,71.16
2022-10-19T07:45:14.659Z,70.92
2022-10-19T07:46:14.653Z,70.52
2022-10-19T07:47:14.637Z,70.19
2022-10-19T07:48:14.626Z,69.68
2022-10-19T07:49:14.614Z,69.48
2022-10-19T07:50:14.606Z,68.97
2022-10-19T07:51:14.656Z,69.48
2022-10-19T07:52:14.579Z,69.28
2022-10-19T07:53:14.577Z,69.28
2022-10-19T07:54:14.581Z,68.94
2022-10-19T07:55:14.579Z,68.77
2022-10-19T07:56:14.545Z,68.97
2022-10-19T07:57:14.525Z,69.17
2022-10-19T07:58:14.517Z,69.00
2022-10-19T07:59:14.501Z,69.11
2022-10-19T08:00:14.492Z,69.64
2022-10-19T08:01:14.480Z,70.25
2022-10-19T08:02:14.517Z,70.35
2022-10-19T08:04:49.084Z,70.18
2022-10-19T08:05:14.937Z,70.89
2022-10-19T08:06:14.424Z,71.09
2022-10-19T08:07:14.430Z,71.09
2022-10-19T08:08:14.402Z,71.70
2022-10-19T08:09:33.476Z,72.03
2022-10-19T08:10:14.410Z,72.34
2022-10-19T08:11:14.371Z,72.44
2022-10-19T08:12:15.668Z,73.08
2022-10-19T08:13:14.347Z,73.49
2022-10-19T08:14:14.339Z,73.25
2022-10-19T08:15:14.331Z,73.18
2022-10-19T08:16:14.320Z,73.38
2022-10-19T08:17:14.308Z,73.99
2022-10-19T08:18:14.289Z,74.63
2022-10-19T08:19:14.280Z,75.25
2022-10-19T08:20:14.271Z,75.75
2022-10-19T08:21:14.257Z,76.36
2022-10-19T08:22:14.245Z,76.66
2022-10-19T08:23:14.242Z,76.46
2022-10-19T08:24:14.227Z,76.86
2022-10-19T08:25:14.211Z,77.06
2022-10-19T08:26:14.226Z,76.97
2022-10-19T08:27:14.290Z,76.86
2022-10-19T08:28:14.177Z,76.86
2022-10-19T08:29:14.170Z,77.03
2022-10-19T08:30:14.260Z,76.93
2022-10-19T08:31:14.148Z,76.62
2022-10-19T08:32:14.145Z,75.98
2022-10-19T08:33:14.128Z,75.88
2022-10-19T08:34:14.117Z,75.34
2022-10-19T08:35:14.107Z,75.04
2022-10-19T08:36:14.097Z,74.60
2022-10-19T08:37:25.729Z,74.06
2022-10-19T08:38:14.080Z,73.15
2022-10-19T08:39:14.057Z,73.01
2022-10-19T08:40:14.047Z,72.00
2022-10-19T08:41:14.035Z,71.86
2022-10-19T08:42:14.052Z,71.46
2022-10-19T08:43:14.010Z,71.86
2022-10-19T08:44:14.000Z,71.09
2022-10-19T08:45:13.994Z,71.90
2022-10-19T08:46:13.976Z,71.39
2022-10-19T08:47:14.232Z,70.28
2022-10-19T08:48:13.958Z,70.82
2022-10-19T08:49:13.945Z,71.77
2022-10-19T08:50:13.942Z,71.90
2022-10-19T08:51:13.919Z,72.71
2022-10-19T08:52:13.910Z,71.90
2022-10-19T08:53:13.896Z,72.41
2022-10-19T08:54:13.891Z,71.86
2022-10-19T08:55:16.530Z,71.63
2022-10-19T08:56:22.195Z,70.72
2022-10-19T08:57:13.857Z,70.69
2022-10-19T08:58:13.870Z,69.78
2022-10-19T08:59:13.835Z,70.15
2022-10-19T09:00:13.828Z,70.15
2022-10-19T09:01:13.812Z,69.95
2022-10-19T09:02:13.804Z,69.48
2022-10-19T09:03:13.792Z,70.28
2022-10-19T09:04:13.783Z,70.28
2022-10-19T09:05:13.762Z,69.44
2022-10-19T09:06:13.756Z,68.60
2022-10-19T09:07:13.742Z,67.66
2022-10-19T09:08:17.581Z,66.96
2022-10-19T09:09:13.717Z,66.76
2022-10-19T09:10:13.711Z,66.79
2022-10-19T09:11:13.701Z,67.29
2022-10-19T09:12:13.683Z,67.39
2022-10-19T09:13:13.674Z,67.96
2022-10-19T09:14:13.684Z,67.26
2022-10-19T09:15:13.656Z,66.62
2022-10-19T09:16:13.638Z,65.92
2022-10-19T09:17:13.638Z,65.89
2022-10-19T09:18:13.614Z,65.69
2022-10-19T09:19:13.608Z,65.52
2022-10-19T09:20:13.599Z,65.11
2022-10-19T09:21:13.588Z,65.14
2022-10-19T09:22:13.577Z,66.05
2022-10-19T09:23:13.679Z,66.55
2022-10-19T09:24:13.548Z,65.75
2022-10-19T09:25:13.538Z,66.29
2022-10-19T09:26:13.530Z,66.58
2022-10-19T09:27:13.512Z,66.41
2022-10-19T09:28:13.503Z,67.35
2022-10-19T09:29:13.500Z,67.73
2022-10-19T09:30:13.504Z,67.90
2022-10-19T09:31:13.470Z,64.75
2022-10-19T09:32:13.456Z,63.84
2022-10-19T09:33:15.421Z,63.77
2022-10-19T09:34:13.432Z,64.17
2022-10-19T09:35:13.429Z,64.41
2022-10-19T09:36:22.449Z,64.81
2022-10-19T09:37:21.097Z,65.04
2022-10-19T09:38:13.389Z,65.78
2022-10-19T09:39:13.379Z,65.78
2022-10-19T09:40:13.364Z,66.32
2022-10-19T09:41:13.353Z,66.85
2022-10-19T09:42:13.343Z,67.08
2022-10-19T09:43:13.334Z,66.98
2022-10-19T09:44:13.327Z,66.65
2022-10-19T09:45:13.308Z,66.14
2022-10-19T09:46:19.701Z,67.15
2022-10-19T09:47:13.917Z,66.21
2022-10-19T09:48:13.406Z,64.80
2022-10-19T09:49:13.264Z,64.90
2022-10-19T09:50:13.255Z,64.77
2022-10-19T09:51:13.244Z,64.44
2022-10-19T09:52:13.228Z,63.60
2022-10-19T09:53:13.222Z,61.68
2022-10-19T09:54:13.205Z,61.05
2022-10-19T09:55:13.201Z,60.85
2022-10-19T09:56:13.183Z,60.72
2022-10-19T09:57:13.174Z,61.60
2022-10-19T09:58:13.175Z,60.79
2022-10-19T09:59:13.150Z,59.48
2022-10-19T10:00:13.143Z,59.18
2022-10-19T10:01:13.125Z,59.51
2022-10-19T10:02:13.142Z,60.72
2022-10-19T10:03:13.102Z,59.91
2022-10-19T10:04:13.092Z,60.04
2022-10-19T10:05:13.081Z,60.35
2022-10-19T10:06:13.068Z,61.83
2022-10-19T10:07:13.064Z,60.76
2022-10-19T10:08:13.047Z,59.46
2022-10-19T10:09:13.049Z,59.83
2022-10-19T10:10:13.023Z,60.83
2022-10-19T10:11:13.013Z,57.79
2022-10-19T10:12:12.998Z,58.23
2022-10-19T10:13:12.995Z,54.04
2022-10-19T10:14:12.984Z,52.86
2022-10-19T10:15:12.969Z,52.19
2022-10-19T10:16:12.954Z,50.81
2022-10-19T10:17:12.944Z,51.64
2022-10-19T10:18:12.963Z,52.44
2022-10-19T10:19:12.922Z,53.49
2022-10-19T10:20:12.911Z,50.12
2022-10-19T10:21:12.898Z,49.37
2022-10-19T10:22:12.889Z,48.75
2022-10-19T10:23:12.883Z,47.11
2022-10-19T10:24:12.864Z,45.99
2022-10-19T10:25:12.854Z,46.17
2022-10-19T10:26:12.847Z,45.03
2022-10-19T10:27:12.832Z,44.43
2022-10-19T10:28:12.825Z,44.41
2022-10-19T10:29:12.807Z,44.33
2022-10-19T10:30:12.797Z,43.82
2022-10-19T10:31:12.784Z,42.90
2022-10-19T10:32:12.774Z,42.40
2022-10-19T10:33:15.940Z,42.40
2022-10-19T10:34:22.966Z,41.91
2022-10-19T10:35:12.742Z,42.38
2022-10-19T10:36:12.737Z,45.20
2022-10-19T10:37:12.722Z,38.83
2022-10-19T10:38:12.707Z,39.23
2022-10-19T10:39:12.703Z,39.83
2022-10-19T10:40:12.686Z,39.19
2022-10-19T10:41:12.673Z,38.92
2022-10-19T10:42:12.671Z,38.64
2022-10-19T10:43:12.650Z,38.81
2022-10-19T10:44:12.639Z,42.36
2022-10-19T10:45:12.635Z,38.25
2022-10-19T10:46:12.620Z,37.12
2022-10-19T10:47:12.607Z,37.48
2022-10-19T10:48:12.697Z,35.85
2022-10-19T10:49:12.589Z,37.33
2022-10-19T10:50:12.597Z,37.94
2022-10-19T10:51:12.560Z,38.22
2022-10-19T10:52:12.553Z,38.28
2022-10-19T10:53:12.539Z,35.31
2022-10-19T10:54:12.534Z,36.96
2022-10-19T10:55:12.516Z,33.02
2022-10-19T10:56:12.505Z,36.73
2022-10-19T10:57:12.542Z,34.65
2022-10-19T10:58:12.482Z,32.67
2022-10-19T10:59:12.525Z,32.88
2022-10-19T11:00:12.461Z,33.39
2022-10-19T11:01:12.450Z,33.60
2022-10-19T11:02:12.614Z,33.74
2022-10-19T11:03:12.436Z,34.99
2022-10-19T11:04:12.471Z,33.44
2022-10-19T11:05:12.408Z,33.86
2022-10-19T11:06:12.510Z,34.17
2022-10-19T11:07:12.387Z,34.90
2022-10-19T11:08:12.391Z,35.52
2022-10-19T11:09:12.407Z,39.12
2022-10-19T11:10:12.356Z,37.51
2022-10-19T11:11:12.340Z,34.52
2022-10-19T11:12:12.334Z,34.32
2022-10-19T11:13:12.317Z,34.77
2022-10-19T11:14:12.307Z,35.08
2022-10-19T11:15:12.296Z,34.95
2022-10-19T11:16:12.290Z,36.25
2022-10-19T11:17:12.273Z,35.76
2022-10-19T11:18:12.269Z,36.60
2022-10-19T11:19:12.395Z,36.82
2022-10-19T11:20:12.246Z,39.65
2022-10-19T11:21:12.229Z,37.24
2022-10-19T11:22:12.243Z,35.04
2022-10-19T11:23:12.219Z,36.29
2022-10-19T11:24:12.197Z,36.84
2022-10-19T11:25:12.188Z,37.76
2022-10-19T11:26:12.177Z,38.59
2022-10-19T11:27:12.163Z,39.11
2022-10-19T11:28:12.151Z,39.41
2022-10-19T11:29:12.141Z,39.55
2022-10-19T11:30:12.134Z,37.59
2022-10-19T11:31:12.121Z,37.39
2022-10-19T11:32:12.110Z,36.96
2022-10-19T11:33:12.102Z,36.35
2022-10-19T11:34:12.084Z,36.51
2022-10-19T11:35:12.076Z,36.57
2022-10-19T11:36:12.065Z,39.95
2022-10-19T11:37:12.060Z,39.95
2022-10-19T11:38:20.024Z,37.39
2022-10-19T11:39:12.037Z,37.43
2022-10-19T11:40:12.024Z,37.70
2022-10-19T11:41:17.979Z,39.42
2022-10-19T11:42:11.997Z,40.17
2022-10-19T11:43:11.992Z,41.29
2022-10-19T11:44:11.976Z,41.09
2022-10-19T11:45:11.969Z,41.31
2022-10-19T11:46:11.966Z,41.43
2022-10-19T11:47:11.945Z,41.85
2022-10-19T11:48:11.938Z,42.69
2022-10-19T11:49:11.947Z,44.48
2022-10-19T11:50:11.923Z,44.62
2022-10-19T11:51:21.655Z,45.30
2022-10-19T11:52:11.887Z,44.45
2022-10-19T11:53:11.889Z,43.54
2022-10-19T11:54:14.740Z,41.77
2022-10-19T11:55:11.857Z,42.38
2022-10-19T11:56:11.850Z,42.76
2022-10-19T11:57:12.020Z,42.19
2022-10-19T11:58:11.824Z,42.76
2022-10-19T12:00:33.751Z,41.71
2022-10-19T12:01:11.788Z,42.74
2022-10-19T12:02:11.818Z,40.88
2022-10-19T12:03:11.767Z,38.80
2022-10-19T12:04:11.761Z,39.15
2022-10-19T12:05:11.743Z,40.36
2022-10-19T12:06:11.784Z,40.42
2022-10-19T12:07:11.722Z,40.42
2022-10-19T12:08:11.757Z,39.56
2022-10-19T12:09:11.781Z,40.18
2022-10-19T12:10:11.775Z,41.21
2022-10-19T12:11:11.678Z,42.02
2022-10-19T12:12:11.669Z,41.67
2022-10-19T12:13:11.657Z,44.48
2022-10-19T12:14:11.644Z,43.64
2022-10-19T12:15:11.634Z,44.81
2022-10-19T12:16:11.625Z,42.27
2022-10-19T12:17:11.610Z,43.60
2022-10-19T12:18:11.605Z,44.34
2022-10-19T12:19:11.590Z,45.18
2022-10-19T12:20:14.775Z,45.50
2022-10-19T12:21:11.564Z,46.59
2022-10-19T12:22:11.558Z,48.43
2022-10-19T12:23:11.551Z,49.16
2022-10-19T12:24:11.531Z,50.51
2022-10-19T12:25:11.523Z,48.61
2022-10-19T12:26:11.561Z,47.61
2022-10-19T12:27:11.506Z,47.51
2022-10-19T12:28:11.496Z,48.36
2022-10-19T12:29:11.476Z,49.26
2022-10-19T12:30:11.465Z,48.66
2022-10-19T12:31:11.453Z,48.04
2022-10-19T12:32:11.443Z,48.31
2022-10-19T12:33:11.435Z,48.01
2022-10-19T12:34:11.419Z,48.01
2022-10-19T12:35:11.449Z,47.49
2022-10-19T12:36:11.396Z,47.29
2022-10-19T12:37:11.385Z,46.81
2022-10-19T12:38:11.373Z,47.21
2022-10-19T12:39:11.364Z,46.47
2022-10-19T12:40:11.359Z,46.55
2022-10-19T12:41:11.340Z,45.12
2022-10-19T12:42:11.354Z,45.42
2022-10-19T12:43:11.319Z,44.80
2022-10-19T12:44:11.342Z,44.18
2022-10-19T12:45:11.302Z,44.46
2022-10-19T12:46:11.289Z,44.04
2022-10-19T12:47:11.274Z,43.62
2022-10-19T12:48:11.264Z,43.90
2022-10-19T12:49:11.254Z,43.12
2022-10-19T12:50:11.326Z,42.74
2022-10-19T12:51:11.228Z,43.48
2022-10-19T12:52:11.217Z,44.70
2022-10-19T12:53:11.207Z,45.10
2022-10-19T12:54:11.196Z,47.45
2022-10-19T12:55:11.189Z,46.63
2022-10-19T12:56:11.173Z,43.64